Seafrance Rodin — FOBQ — position and weather

sailwx.info

Track history (hours):
 
Tides and Currents Weather Stations Pressure Air Temp Water Temp Dewpoint Dewpoint Depression Visibility Wind Speed Wind Dir Waves Ship Positions

Seafrance Rodin

Operator: SeaFrance

Last reported at 2019-Sep-21 10:30 UTC. Time now 2019-Sep-21 10:57 UTC.
Position N 50°59' E 001°39'.

Length 185 m; draft 6 m.

Type: Ship (hazmat cat A). MMSI: 227022800.

Date/timePositionNaut miles runAvg speedWind from/ knotsBaromVisibWave heightAir tempDewpointWater temp
2019-Sep-21 10:30N 50°59' E 001°39'918.7
2019-Sep-21 10:00N 51°05' E 001°27'4 2.7
2019-Sep-21 08:34N 51°07' E 001°22'117.9
2019-Sep-21 08:31N 51°07' E 001°24'918.0
2019-Sep-21 08:00N 51°02' E 001°36'917.5
2019-Sep-21 07:30N 50°58' E 001°49'1 2.8
2019-Sep-21 07:00N 50°58' E 001°51'0 0.0
2019-Sep-21 06:30N 50°58' E 001°51'3 5.3
2019-Sep-21 06:00N 50°58' E 001°47'816.0
2019-Sep-21 05:30N 51°01' E 001°35'815.8
2019-Sep-21 05:00N 51°06' E 001°25'3 3.0
2019-Sep-21 03:54N 51°07' E 001°20'411.6
2019-Sep-21 03:31N 51°07' E 001°27'714.4
2019-Sep-21 03:00N 51°02' E 001°36'815.3
2019-Sep-21 02:30N 50°58' E 001°47'3 5.5
2019-Sep-21 02:00N 50°58' E 001°51'0 0.0
2019-Sep-21 01:30N 50°58' E 001°51'3 6.8
2019-Sep-21 01:00N 50°58' E 001°46'714.8
2019-Sep-21 00:30N 51°01' E 001°35'714.8
2019-Sep-21 00:00N 51°05' E 001°25'4 3.0
2019-Sep-20 22:47N 51°07' E 001°21'516.7
2019-Sep-20 22:31N 51°06' E 001°28'917.2
2019-Sep-20 22:01N 51°01' E 001°38'816.1
2019-Sep-20 21:30N 50°58' E 001°51'0 0.7
2019-Sep-20 21:00N 50°58' E 001°51'3 6.0
2019-Sep-20 20:30N 50°58' E 001°46'816.2
2019-Sep-20 20:00N 51°01' E 001°34'816.2
2019-Sep-20 19:30N 51°06' E 001°24'3 5.8
2019-Sep-20 19:00N 51°08' E 001°20'0 0.2
2019-Sep-20 18:30N 51°07' E 001°20'2 4.1
2019-Sep-20 18:00N 51°07' E 001°24'815.6
2019-Sep-20 17:30N 51°02' E 001°33'917.4
2019-Sep-20 17:01N 50°58' E 001°45'4 7.2
2019-Sep-20 16:30N 50°58' E 001°51'0 0.0
2019-Sep-20 16:00N 50°58' E 001°51'713.9
2019-Sep-20 15:30N 50°59' E 001°40'816.3
2019-Sep-20 15:00N 51°03' E 001°29'7 5.5
2019-Sep-20 13:44N 51°07' E 001°20'2 8.1
2019-Sep-20 13:30N 51°07' E 001°23'816.1
2019-Sep-20 13:00N 51°03' E 001°34'816.7
2019-Sep-20 12:30N 50°58' E 001°45'4 6.3
2019-Sep-20 11:50N 50°58' E 001°52'0 0.0
2019-Sep-20 11:30N 50°58' E 001°52'2 4.2
2019-Sep-20 11:00N 50°58' E 001°48'713.6
2019-Sep-20 10:30N 50°59' E 001°38'917.5
2019-Sep-20 10:00N 51°04' E 001°27'5 4.2
2019-Sep-20 08:45N 51°07' E 001°20'313.3
2019-Sep-20 08:30N 51°07' E 001°26'917.3
2019-Sep-20 08:00N 51°02' E 001°37'816.8
2019-Sep-20 07:30N 50°58' E 001°49'2 3.1
2019-Sep-20 07:00N 50°58' E 001°51'0 0.0
2019-Sep-20 06:30N 50°58' E 001°51'3 5.7
2019-Sep-20 06:00N 50°58' E 001°47'816.2
2019-Sep-20 05:31N 51°00' E 001°35'816.7
2019-Sep-20 05:00N 51°05' E 001°24'3 3.7
2019-Sep-20 04:09N 51°08' E 001°20'0 0.2
2019-Sep-20 03:56N 51°08' E 001°20'410.4
2019-Sep-20 03:31N 51°06' E 001°27'714.6
2019-Sep-20 03:00N 51°02' E 001°37'714.6
2019-Sep-20 02:30N 50°58' E 001°47'3 5.5
2019-Sep-20 02:00N 50°58' E 001°51'0 0.0
2019-Sep-20 01:30N 50°58' E 001°51'3 6.0
2019-Sep-20 01:01N 50°58' E 001°46'815.4
2019-Sep-20 00:30N 51°01' E 001°35'714.6
2019-Sep-20 00:00N 51°05' E 001°25'4 3.6
2019-Sep-19 22:51N 51°07' E 001°20'410.6
2019-Sep-19 22:31N 51°06' E 001°26'815.3
2019-Sep-19 22:00N 51°02' E 001°36'815.8
2019-Sep-19 21:30N 50°58' E 001°47'3 5.5
2019-Sep-19 21:00N 50°58' E 001°51'0 0.0
2019-Sep-19 20:30N 50°58' E 001°51'612.3
2019-Sep-19 20:01N 50°58' E 001°41'816.6
2019-Sep-19 19:30N 51°03' E 001°30'8 5.6
2019-Sep-19 18:05N 51°07' E 001°20'110.5
2019-Sep-19 17:57N 51°07' E 001°23'817.9
2019-Sep-19 17:30N 51°04' E 001°34'918.0
2019-Sep-19 17:00N 50°58' E 001°45'4 7.3
2019-Sep-19 16:30N 50°58' E 001°51'0 0.0
2019-Sep-19 16:00N 50°58' E 001°51'4 8.1
2019-Sep-19 15:30N 50°58' E 001°45'918.0
2019-Sep-19 15:00N 51°02' E 001°32'9 5.5
2019-Sep-19 13:22N 51°07' E 001°20'411.2
2019-Sep-19 13:01N 51°06' E 001°26'1020.2
2019-Sep-19 12:30N 51°01' E 001°40'714.8
2019-Sep-19 12:01N 50°58' E 001°51'0 0.0
2019-Sep-19 11:30N 50°58' E 001°51'0 0.4
2019-Sep-19 11:01N 50°58' E 001°51'917.2
2019-Sep-19 10:30N 50°59' E 001°37'1021.0
2019-Sep-19 10:01N 51°06' E 001°24'3 2.3
2019-Sep-19 08:45N 51°07' E 001°20'310.5
2019-Sep-19 08:30N 51°07' E 001°24'917.2
2019-Sep-19 08:00N 51°03' E 001°36'816.4
2019-Sep-19 07:30N 50°58' E 001°47'2 4.8
2019-Sep-19 07:00N 50°58' E 001°51'0 0.0
2019-Sep-19 06:30N 50°58' E 001°51'3 6.1
2019-Sep-19 06:01N 50°58' E 001°46'816.5
2019-Sep-19 05:30N 51°01' E 001°34'816.2
2019-Sep-19 05:01N 51°06' E 001°24'3 2.3
2019-Sep-19 03:53N 51°07' E 001°20'512.8
2019-Sep-19 03:30N 51°07' E 001°28'714.8
2019-Sep-19 03:00N 51°02' E 001°37'714.5
2019-Sep-19 02:30N 50°58' E 001°47'3 5.0
2019-Sep-19 02:00N 50°58' E 001°51'0 0.0
2019-Sep-19 01:30N 50°58' E 001°51'3 5.7
2019-Sep-19 01:00N 50°58' E 001°47'816.1
2019-Sep-19 00:30N 51°01' E 001°34'815.7
2019-Sep-19 00:00N 51°05' E 001°24'3 3.2
2019-Sep-18 22:59N 51°07' E 001°20'612.8
2019-Sep-18 22:30N 51°05' E 001°29'1019.1
2019-Sep-18 22:01N 50°59' E 001°42'612.2
2019-Sep-18 21:30N 50°58' E 001°51'0 0.0
2019-Sep-18 21:00N 50°58' E 001°51'4 8.8
2019-Sep-18 20:31N 50°58' E 001°44'816.7
2019-Sep-18 20:00N 50°59' E 001°31'1019.1
2019-Sep-18 19:29N 51°07' E 001°21'1 0.7
2019-Sep-18 18:22N 51°07' E 001°20'411.1
2019-Sep-18 18:00N 51°06' E 001°26'918.3
2019-Sep-18 17:30N 51°01' E 001°38'816.5
2019-Sep-18 17:01N 50°58' E 001°51'0 0.6
2019-Sep-18 16:30N 50°58' E 001°51'0 0.0
2019-Sep-18 16:01N 50°58' E 001°51'510.2
2019-Sep-18 15:30N 50°58' E 001°43'816.7
2019-Sep-18 15:00N 51°02' E 001°31'917.2
2019-Sep-18 14:30N 51°07' E 001°20'0 0.1
2019-Sep-18 13:31N 51°07' E 001°20'0 5.2
2019-Sep-18 13:28N 51°07' E 001°20'5 9.8
2019-Sep-18 13:01N 51°06' E 001°27'918.9
2019-Sep-18 12:30N 51°00' E 001°40'714.5
2019-Sep-18 12:01N 50°58' E 001°51'0 0.3
2019-Sep-18 11:30N 50°58' E 001°51'0 0.9
2019-Sep-18 11:01N 50°58' E 001°50'816.8
2019-Sep-18 10:30N 50°59' E 001°37'918.9
2019-Sep-18 10:00N 51°05' E 001°25'4 3.2
2019-Sep-18 08:47N 51°07' E 001°20'312.1
2019-Sep-18 08:31N 51°07' E 001°25'918.1
2019-Sep-18 08:01N 51°02' E 001°38'815.8
2019-Sep-18 07:30N 50°58' E 001°49'1 2.5
2019-Sep-18 07:00N 50°58' E 001°51'0 0.0
2019-Sep-18 06:30N 50°58' E 001°51'3 6.1
2019-Sep-18 06:00N 50°58' E 001°46'815.6
2019-Sep-18 05:30N 51°01' E 001°35'816.5
2019-Sep-18 05:01N 51°06' E 001°24'3 2.3
2019-Sep-18 03:48N 51°07' E 001°21'414.4
2019-Sep-18 03:31N 51°06' E 001°27'714.7
2019-Sep-18 03:01N 51°02' E 001°37'714.2
2019-Sep-18 02:31N 50°58' E 001°46'3 5.9
2019-Sep-18 02:00N 50°58' E 001°51'0 0.0
2019-Sep-18 01:30N 50°58' E 001°51'3 5.7
2019-Sep-18 01:01N 50°58' E 001°47'815.6
2019-Sep-18 00:31N 51°01' E 001°35'815.2
2019-Sep-18 00:00N 51°05' E 001°25'4 3.5
2019-Sep-17 22:57N 51°07' E 001°20'714.7
2019-Sep-17 22:31N 51°06' E 001°30'817.0
2019-Sep-17 22:01N 50°60' E 001°40'714.1
2019-Sep-17 21:30N 50°58' E 001°51'0 0.0
2019-Sep-17 21:00N 50°58' E 001°51'2 4.4
2019-Sep-17 20:31N 50°58' E 001°48'815.8
2019-Sep-17 20:01N 50°58' E 001°35'918.4
2019-Sep-17 19:30N 51°05' E 001°24'4 2.6
2019-Sep-17 18:08N 51°07' E 001°20'110.1
2019-Sep-17 18:00N 51°07' E 001°23'917.5
2019-Sep-17 17:30N 51°03' E 001°35'917.8
2019-Sep-17 17:00N 50°58' E 001°46'3 6.1
2019-Sep-17 16:30N 50°58' E 001°51'0 0.0
2019-Sep-17 16:00N 50°58' E 001°51'3 6.8
2019-Sep-17 15:30N 50°58' E 001°46'917.8
2019-Sep-17 15:01N 51°01' E 001°32'816.2
2019-Sep-17 14:31N 51°06' E 001°23'2 1.9
2019-Sep-17 13:28N 51°07' E 001°20'613.9
2019-Sep-17 13:01N 51°05' E 001°29'1019.0
2019-Sep-17 12:31N 50°59' E 001°42'611.5
2019-Sep-17 12:00N 50°58' E 001°51'0 0.0
2019-Sep-17 11:30N 50°58' E 001°51'2 4.1
2019-Sep-17 11:01N 50°58' E 001°48'917.8
2019-Sep-17 10:31N 50°60' E 001°34'918.1
2019-Sep-17 10:01N 51°06' E 001°23'2 1.8
2019-Sep-17 08:44N 51°07' E 001°20'312.1
2019-Sep-17 08:31N 51°07' E 001°25'917.4
2019-Sep-17 08:00N 51°02' E 001°36'816.8
2019-Sep-17 07:30N 50°58' E 001°48'2 3.8
2019-Sep-17 07:00N 50°58' E 001°51'0 0.0
2019-Sep-17 06:30N 50°58' E 001°51'4 7.6
2019-Sep-17 06:00N 50°58' E 001°45'714.8
2019-Sep-17 05:30N 50°60' E 001°34'816.6
2019-Sep-17 05:00N 51°06' E 001°24'3 2.5
2019-Sep-17 03:48N 51°07' E 001°20'412.4
2019-Sep-17 03:30N 51°06' E 001°26'815.5
2019-Sep-17 03:01N 51°02' E 001°36'714.9
2019-Sep-17 02:31N 50°58' E 001°46'3 5.8
2019-Sep-17 02:00N 50°58' E 001°51'0 0.0
2019-Sep-17 01:30N 50°58' E 001°51'3 6.6
2019-Sep-17 01:01N 50°58' E 001°46'815.7
2019-Sep-17 00:31N 51°01' E 001°34'815.2
2019-Sep-17 00:00N 51°05' E 001°25'3 2.9
2019-Sep-16 22:53N 51°07' E 001°20'411.1
2019-Sep-16 22:30N 51°06' E 001°27'714.9
2019-Sep-16 22:00N 51°01' E 001°36'815.8
2019-Sep-16 21:30N 50°58' E 001°47'2 4.8
2019-Sep-16 21:00N 50°58' E 001°51'0 0.0
2019-Sep-16 20:31N 50°58' E 001°51'612.7
2019-Sep-16 20:00N 50°58' E 001°41'816.0
2019-Sep-16 19:30N 51°02' E 001°29'8 5.0
2019-Sep-16 17:55N 51°07' E 001°20'716.7
2019-Sep-16 17:30N 51°05' E 001°30'917.6
2019-Sep-16 17:01N 50°60' E 001°42'611.8
2019-Sep-16 16:30N 50°58' E 001°51'0 0.0
2019-Sep-16 16:00N 50°58' E 001°51'4 7.1
2019-Sep-16 15:30N 50°58' E 001°45'918.1
2019-Sep-16 15:01N 51°02' E 001°32'917.9
2019-Sep-16 14:30N 51°07' E 001°21'0 0.2
2019-Sep-16 13:22N 51°07' E 001°20'615.3
2019-Sep-16 13:01N 51°05' E 001°29'918.1
2019-Sep-16 12:31N 51°01' E 001°41'713.7
2019-Sep-16 12:01N 50°58' E 001°51'0 0.0
2019-Sep-16 11:31N 50°58' E 001°51'1 1.1
2019-Sep-16 11:00N 50°58' E 001°50'815.4
2019-Sep-16 10:30N 50°60' E 001°38'816.8
2019-Sep-16 10:01N 51°04' E 001°27'5 4.1
2019-Sep-16 08:43N 51°07' E 001°20'210.2
2019-Sep-16 08:31N 51°07' E 001°24'917.5
2019-Sep-16 08:00N 51°02' E 001°35'917.1
2019-Sep-16 07:30N 50°58' E 001°47'2 4.5
2019-Sep-16 07:00N 50°58' E 001°51'0 0.0
2019-Sep-16 06:30N 50°58' E 001°51'4 7.8
2019-Sep-16 06:00N 50°58' E 001°45'816.2
2019-Sep-16 05:31N 51°01' E 001°33'917.2
2019-Sep-16 05:00N 51°06' E 001°22'2 1.4
2019-Sep-16 03:56N 51°07' E 001°20'613.1
2019-Sep-16 03:30N 51°05' E 001°29'917.1
2019-Sep-16 03:00N 51°00' E 001°40'714.5
2019-Sep-16 02:30N 50°58' E 001°51'0 0.3
2019-Sep-16 02:01N 50°58' E 001°51'0 0.0
2019-Sep-16 01:30N 50°58' E 001°51'2 3.4
2019-Sep-16 01:01N 50°58' E 001°48'815.3
2019-Sep-16 00:30N 50°60' E 001°36'816.1
2019-Sep-16 00:00N 51°05' E 001°26'5 4.0
2019-Sep-15 22:52N 51°07' E 001°20'411.0
2019-Sep-15 22:30N 51°06' E 001°26'815.6
2019-Sep-15 22:00N 51°02' E 001°37'816.0
2019-Sep-15 21:30N 50°58' E 001°48'2 3.9
2019-Sep-15 21:00N 50°58' E 001°51'0 0.0
2019-Sep-15 20:30N 50°58' E 001°51'5 9.8
2019-Sep-15 20:01N 50°58' E 001°43'714.1
2019-Sep-15 19:30N 51°01' E 001°33'815.6
2019-Sep-15 19:00N 51°06' E 001°24'3 5.1
2019-Sep-15 18:29N 51°08' E 001°20'0 0.4
2019-Sep-15 18:00N 51°07' E 001°20'713.5
2019-Sep-15 17:31N 51°05' E 001°30'917.2
2019-Sep-15 17:01N 50°60' E 001°41'612.5
2019-Sep-15 16:30N 50°58' E 001°51'0 0.0
2019-Sep-15 16:00N 50°58' E 001°51'2 4.3
2019-Sep-15 15:30N 50°58' E 001°48'815.7
2019-Sep-15 15:01N 50°59' E 001°35'714.9
2019-Sep-15 14:31N 51°04' E 001°27'510.6
2019-Sep-15 14:00N 51°08' E 001°20'0 0.0
2019-Sep-15 13:30N 51°08' E 001°20'1 2.8
2019-Sep-15 13:01N 51°07' E 001°22'918.0
2019-Sep-15 12:30N 51°02' E 001°35'1019.4
2019-Sep-15 12:00N 50°58' E 001°49'1 2.8
2019-Sep-15 11:30N 50°58' E 001°51'0 0.0
2019-Sep-15 11:00N 50°58' E 001°51'0 0.2
2019-Sep-15 10:30N 50°58' E 001°51'0 0.0
2019-Sep-15 10:00N 50°58' E 001°51'0 0.0
2019-Sep-15 09:30N 50°58' E 001°51'0 0.0
2019-Sep-15 09:00N 50°58' E 001°51'0 0.0
2019-Sep-15 08:30N 50°58' E 001°51'0 0.0
2019-Sep-15 08:00N 50°58' E 001°51'0 0.0
2019-Sep-15 07:30N 50°58' E 001°51'0 0.0
2019-Sep-15 06:57N 50°58' E 001°51'0 0.0
2019-Sep-15 06:30N 50°58' E 001°51'0 0.0
2019-Sep-15 05:57N 50°58' E 001°51'0 0.0
2019-Sep-15 05:27N 50°58' E 001°51'0 0.0
2019-Sep-15 05:00N 50°58' E 001°51'0 0.0
2019-Sep-15 04:30N 50°58' E 001°51'0 0.0
2019-Sep-15 03:57N 50°58' E 001°51'0 0.0
2019-Sep-15 03:30N 50°58' E 001°51'0 0.0
2019-Sep-15 03:00N 50°58' E 001°51'0 0.0
2019-Sep-15 02:30N 50°58' E 001°51'0 0.0
2019-Sep-15 02:00N 50°58' E 001°51'0 0.0
2019-Sep-15 01:30N 50°58' E 001°51'1 1.2
2019-Sep-15 01:01N 50°58' E 001°50'917.7
2019-Sep-15 00:30N 51°00' E 001°37'918.1
2019-Sep-15 00:00N 51°05' E 001°25'3 6.9
2019-Sep-14 23:30N 51°08' E 001°20'0 0.0
2019-Sep-14 23:00N 51°08' E 001°20'4 8.3
2019-Sep-14 22:30N 51°07' E 001°27'816.2
2019-Sep-14 22:00N 51°01' E 001°36'815.7
2019-Sep-14 21:30N 50°58' E 001°48'2 4.0
2019-Sep-14 21:00N 50°58' E 001°51'0 0.0
2019-Sep-14 20:30N 50°58' E 001°51'510.7
2019-Sep-14 20:01N 50°58' E 001°43'714.3
2019-Sep-14 19:31N 51°01' E 001°32'815.4
2019-Sep-14 19:00N 51°06' E 001°23'2 4.3
2019-Sep-14 18:28N 51°08' E 001°20'0 0.3
2019-Sep-14 18:00N 51°07' E 001°21'815.7
2019-Sep-14 17:30N 51°04' E 001°32'816.1
2019-Sep-14 17:00N 50°59' E 001°42'611.4
2019-Sep-14 16:30N 50°58' E 001°51'0 0.0
2019-Sep-14 16:00N 50°58' E 001°51'2 3.1
2019-Sep-14 15:31N 50°58' E 001°49'815.3
2019-Sep-14 15:00N 50°60' E 001°37'816.0
2019-Sep-14 14:31N 51°04' E 001°26'5 6.2
2019-Sep-14 13:44N 51°08' E 001°20'0 0.1
2019-Sep-14 13:19N 51°07' E 001°20'310.4
2019-Sep-14 13:00N 51°06' E 001°25'917.3
2019-Sep-14 12:30N 51°02' E 001°37'816.3
2019-Sep-14 12:00N 50°58' E 001°48'2 3.2
2019-Sep-14 11:30N 50°58' E 001°51'0 0.0
2019-Sep-14 11:00N 50°58' E 001°51'816.7
2019-Sep-14 10:30N 50°60' E 001°38'1019.4
2019-Sep-14 10:00N 51°05' E 001°25'4 3.1
2019-Sep-14 08:45N 51°07' E 001°20'310.6
2019-Sep-14 08:30N 51°07' E 001°24'917.3
2019-Sep-14 08:00N 51°02' E 001°35'917.1
2019-Sep-14 07:30N 50°58' E 001°48'2 4.1
2019-Sep-14 07:00N 50°58' E 001°51'0 0.0
2019-Sep-14 06:30N 50°58' E 001°51'4 7.4
2019-Sep-14 06:00N 50°58' E 001°45'815.5
2019-Sep-14 05:30N 51°00' E 001°34'816.7
2019-Sep-14 05:01N 51°06' E 001°23'3 2.2
2019-Sep-14 03:49N 51°07' E 001°20'413.6
2019-Sep-14 03:31N 51°06' E 001°26'815.3
2019-Sep-14 03:00N 51°02' E 001°37'714.8
2019-Sep-14 02:30N 50°58' E 001°47'3 5.4
2019-Sep-14 02:00N 50°58' E 001°51'0 0.0
2019-Sep-14 01:30N 50°58' E 001°51'4 8.3
2019-Sep-14 01:00N 50°58' E 001°44'815.8
2019-Sep-14 00:30N 51°01' E 001°33'815.5
2019-Sep-14 00:00N 51°06' E 001°23'3 4.8
2019-Sep-13 23:29N 51°08' E 001°20'0 0.1
2019-Sep-13 22:54N 51°07' E 001°20'410.4
2019-Sep-13 22:30N 51°06' E 001°27'816.5
2019-Sep-13 22:01N 51°02' E 001°37'815.3
2019-Sep-13 21:30N 50°58' E 001°49'2 3.2
2019-Sep-13 21:00N 50°58' E 001°51'0 0.4
2019-Sep-13 20:30N 50°58' E 001°51'713.5
2019-Sep-13 20:00N 50°58' E 001°40'713.4
2019-Sep-13 19:30N 51°01' E 001°31'816.0
2019-Sep-13 19:00N 51°07' E 001°21'1 0.9
2019-Sep-13 17:55N 51°07' E 001°20'717.5
2019-Sep-13 17:31N 51°05' E 001°31'816.7
2019-Sep-13 17:00N 50°60' E 001°42'612.3
2019-Sep-13 16:30N 50°58' E 001°51'0 0.0
2019-Sep-13 16:00N 50°58' E 001°51'1 2.9
2019-Sep-13 15:30N 50°58' E 001°49'816.1
2019-Sep-13 15:01N 50°60' E 001°36'917.2
2019-Sep-13 14:30N 51°05' E 001°25'4 3.0
2019-Sep-13 13:15N 51°07' E 001°21'417.3
2019-Sep-13 13:00N 51°06' E 001°27'1019.3
2019-Sep-13 12:30N 51°01' E 001°40'714.9
2019-Sep-13 12:01N 50°58' E 001°51'0 0.1
2019-Sep-13 11:30N 50°58' E 001°51'1 2.6
2019-Sep-13 11:00N 50°58' E 001°49'714.6
2019-Sep-13 10:30N 50°60' E 001°38'917.9
2019-Sep-13 10:00N 51°05' E 001°26'4 3.5
2019-Sep-13 08:46N 51°07' E 001°20'311.9
2019-Sep-13 08:31N 51°07' E 001°25'918.6
2019-Sep-13 08:00N 51°01' E 001°37'917.5
2019-Sep-13 07:31N 50°58' E 001°50'1 1.4
2019-Sep-13 07:00N 50°58' E 001°51'0 0.0
2019-Sep-13 06:30N 50°58' E 001°51'4 7.4
2019-Sep-13 06:00N 50°58' E 001°45'714.7
2019-Sep-13 05:30N 51°00' E 001°34'815.3
2019-Sep-13 05:00N 51°05' E 001°25'4 3.0
2019-Sep-13 03:49N 51°07' E 001°20'412.3
2019-Sep-13 03:30N 51°06' E 001°26'714.8
2019-Sep-13 03:00N 51°03' E 001°37'714.9
2019-Sep-13 02:30N 50°58' E 001°45'3 3.5
2019-Sep-13 01:30N 50°58' E 001°51'2 3.3
2019-Sep-13 01:00N 50°58' E 001°48'815.7
2019-Sep-13 00:30N 51°00' E 001°36'815.8
2019-Sep-13 00:00N 51°05' E 001°26'4 4.2
2019-Sep-12 22:57N 51°07' E 001°20'613.4
2019-Sep-12 22:31N 51°07' E 001°30'815.6
2019-Sep-12 22:00N 51°01' E 001°39'714.0
2019-Sep-12 21:30N 50°58' E 001°49'2 3.1
2019-Sep-12 21:00N 50°58' E 001°51'1 3.0
2019-Sep-12 20:30N 50°58' E 001°49'918.1
2019-Sep-12 20:00N 51°01' E 001°35'918.7
2019-Sep-12 19:31N 51°06' E 001°23'1 0.8
2019-Sep-12 18:11N 51°07' E 001°22'317.5
2019-Sep-12 18:00N 51°06' E 001°27'918.0
2019-Sep-12 17:30N 51°01' E 001°39'816.3
2019-Sep-12 17:00N 50°58' E 001°51'0 0.6
2019-Sep-12 16:30N 50°58' E 001°51'0 0.0
2019-Sep-12 16:00N 50°58' E 001°51'612.4
2019-Sep-12 15:30N 50°58' E 001°41'917.9
2019-Sep-12 15:00N 51°03' E 001°29'7 3.9
2019-Sep-12 13:16N 51°07' E 001°20'415.4
2019-Sep-12 13:00N 51°06' E 001°27'917.7
2019-Sep-12 12:31N 51°01' E 001°38'816.9
2019-Sep-12 12:00N 50°58' E 001°51'0 0.4
2019-Sep-12 11:30N 50°58' E 001°51'0 0.0
2019-Sep-12 11:00N 50°58' E 001°51'816.3
2019-Sep-12 10:30N 50°59' E 001°38'918.7
2019-Sep-12 10:00N 51°04' E 001°26'5 3.7
2019-Sep-12 08:42N 51°07' E 001°20'2 9.1
2019-Sep-12 08:31N 51°07' E 001°23'1019.7
2019-Sep-12 08:01N 51°02' E 001°36'918.7
2019-Sep-12 07:31N 50°58' E 001°50'1 1.6
2019-Sep-12 07:00N 50°58' E 001°51'0 0.0
2019-Sep-12 06:30N 50°58' E 001°51'3 6.4
2019-Sep-12 06:01N 50°58' E 001°46'714.9
2019-Sep-12 05:30N 51°01' E 001°35'816.5
2019-Sep-12 05:00N 51°05' E 001°24'3 2.6
2019-Sep-12 03:48N 51°07' E 001°20'412.4
2019-Sep-12 03:30N 51°06' E 001°26'815.1
2019-Sep-12 03:00N 51°03' E 001°36'815.3
2019-Sep-12 02:31N 50°58' E 001°46'3 6.4
2019-Sep-12 02:01N 50°58' E 001°51'0 0.0
2019-Sep-12 01:31N 50°58' E 001°51'2 3.5
2019-Sep-12 01:00N 50°58' E 001°48'815.1
2019-Sep-12 00:31N 50°60' E 001°37'815.7
2019-Sep-12 00:01N 51°04' E 001°26'5 4.7
2019-Sep-11 22:56N 51°07' E 001°20'613.0
2019-Sep-11 22:31N 51°07' E 001°29'816.7
2019-Sep-11 22:01N 51°02' E 001°39'714.7
2019-Sep-11 21:30N 50°58' E 001°50'1 1.7
2019-Sep-11 21:00N 50°58' E 001°51'1 2.2
2019-Sep-11 20:31N 50°58' E 001°49'1020.5
2019-Sep-11 20:01N 51°01' E 001°34'10 6.4
2019-Sep-11 18:24N 51°07' E 001°20'512.5
2019-Sep-11 18:00N 51°06' E 001°28'917.3
2019-Sep-11 17:31N 51°01' E 001°39'815.7
2019-Sep-11 17:00N 50°58' E 001°51'0 0.6
2019-Sep-11 16:31N 50°58' E 001°51'0 0.0
2019-Sep-11 16:01N 50°58' E 001°51'611.4
2019-Sep-11 15:30N 50°58' E 001°42'1020.1
2019-Sep-11 15:00N 51°04' E 001°29'6 4.4
2019-Sep-11 13:34N 51°07' E 001°20'0 0.7
2019-Sep-11 13:19N 51°07' E 001°20'517.1
2019-Sep-11 13:01N 51°07' E 001°29'917.1
2019-Sep-11 12:30N 51°01' E 001°39'816.0
2019-Sep-11 12:01N 50°58' E 001°51'0 0.3
2019-Sep-11 11:30N 50°58' E 001°51'0 0.4
2019-Sep-11 11:01N 50°58' E 001°51'1019.7
2019-Sep-11 10:31N 50°60' E 001°35'  
Track history (hours):
 
Tides and Currents Weather Stations Pressure Air Temp Water Temp Dewpoint Dewpoint Depression Visibility Wind Speed Wind Dir Waves Ship Positions

Seafrance Rodin

Operator: SeaFrance

Last reported at 2019-Sep-21 10:30 UTC. Time now 2019-Sep-21 10:57 UTC.
Position N 50°59' E 001°39'.

Length 185 m; draft 6 m.

Type: Ship (hazmat cat A). MMSI: 227022800.

Date/timePositionNaut miles runAvg speedWind from/ knotsBaromVisibWave heightAir tempDewpointWater temp
2019-Sep-21 10:30N 50°59' E 001°39'918.7
2019-Sep-21 10:00N 51°05' E 001°27'4 2.7
2019-Sep-21 08:34N 51°07' E 001°22'117.9
2019-Sep-21 08:31N 51°07' E 001°24'918.0
2019-Sep-21 08:00N 51°02' E 001°36'917.5
2019-Sep-21 07:30N 50°58' E 001°49'1 2.8
2019-Sep-21 07:00N 50°58' E 001°51'0 0.0
2019-Sep-21 06:30N 50°58' E 001°51'3 5.3
2019-Sep-21 06:00N 50°58' E 001°47'816.0
2019-Sep-21 05:30N 51°01' E 001°35'815.8
2019-Sep-21 05:00N 51°06' E 001°25'3 3.0
2019-Sep-21 03:54N 51°07' E 001°20'411.6
2019-Sep-21 03:31N 51°07' E 001°27'714.4
2019-Sep-21 03:00N 51°02' E 001°36'815.3
2019-Sep-21 02:30N 50°58' E 001°47'3 5.5
2019-Sep-21 02:00N 50°58' E 001°51'0 0.0
2019-Sep-21 01:30N 50°58' E 001°51'3 6.8
2019-Sep-21 01:00N 50°58' E 001°46'714.8
2019-Sep-21 00:30N 51°01' E 001°35'714.8
2019-Sep-21 00:00N 51°05' E 001°25'4 3.0
2019-Sep-20 22:47N 51°07' E 001°21'516.7
2019-Sep-20 22:31N 51°06' E 001°28'917.2
2019-Sep-20 22:01N 51°01' E 001°38'816.1
2019-Sep-20 21:30N 50°58' E 001°51'0 0.7
2019-Sep-20 21:00N 50°58' E 001°51'3 6.0
2019-Sep-20 20:30N 50°58' E 001°46'816.2
2019-Sep-20 20:00N 51°01' E 001°34'816.2
2019-Sep-20 19:30N 51°06' E 001°24'3 5.8
2019-Sep-20 19:00N 51°08' E 001°20'0 0.2
2019-Sep-20 18:30N 51°07' E 001°20'2 4.1
2019-Sep-20 18:00N 51°07' E 001°24'815.6
2019-Sep-20 17:30N 51°02' E 001°33'917.4
2019-Sep-20 17:01N 50°58' E 001°45'4 7.2
2019-Sep-20 16:30N 50°58' E 001°51'0 0.0
2019-Sep-20 16:00N 50°58' E 001°51'713.9
2019-Sep-20 15:30N 50°59' E 001°40'816.3
2019-Sep-20 15:00N 51°03' E 001°29'7 5.5
2019-Sep-20 13:44N 51°07' E 001°20'2 8.1
2019-Sep-20 13:30N 51°07' E 001°23'816.1
2019-Sep-20 13:00N 51°03' E 001°34'816.7
2019-Sep-20 12:30N 50°58' E 001°45'4 6.3
2019-Sep-20 11:50N 50°58' E 001°52'0 0.0
2019-Sep-20 11:30N 50°58' E 001°52'2 4.2
2019-Sep-20 11:00N 50°58' E 001°48'713.6
2019-Sep-20 10:30N 50°59' E 001°38'917.5
2019-Sep-20 10:00N 51°04' E 001°27'5 4.2
2019-Sep-20 08:45N 51°07' E 001°20'313.3
2019-Sep-20 08:30N 51°07' E 001°26'917.3
2019-Sep-20 08:00N 51°02' E 001°37'816.8
2019-Sep-20 07:30N 50°58' E 001°49'2 3.1
2019-Sep-20 07:00N 50°58' E 001°51'0 0.0
2019-Sep-20 06:30N 50°58' E 001°51'3 5.7
2019-Sep-20 06:00N 50°58' E 001°47'816.2
2019-Sep-20 05:31N 51°00' E 001°35'816.7
2019-Sep-20 05:00N 51°05' E 001°24'3 3.7
2019-Sep-20 04:09N 51°08' E 001°20'0 0.2
2019-Sep-20 03:56N 51°08' E 001°20'410.4
2019-Sep-20 03:31N 51°06' E 001°27'714.6
2019-Sep-20 03:00N 51°02' E 001°37'714.6
2019-Sep-20 02:30N 50°58' E 001°47'3 5.5
2019-Sep-20 02:00N 50°58' E 001°51'0 0.0
2019-Sep-20 01:30N 50°58' E 001°51'3 6.0
2019-Sep-20 01:01N 50°58' E 001°46'815.4
2019-Sep-20 00:30N 51°01' E 001°35'714.6
2019-Sep-20 00:00N 51°05' E 001°25'4 3.6
2019-Sep-19 22:51N 51°07' E 001°20'410.6
2019-Sep-19 22:31N 51°06' E 001°26'815.3
2019-Sep-19 22:00N 51°02' E 001°36'815.8
2019-Sep-19 21:30N 50°58' E 001°47'3 5.5
2019-Sep-19 21:00N 50°58' E 001°51'0 0.0
2019-Sep-19 20:30N 50°58' E 001°51'612.3
2019-Sep-19 20:01N 50°58' E 001°41'816.6
2019-Sep-19 19:30N 51°03' E 001°30'8 5.6
2019-Sep-19 18:05N 51°07' E 001°20'110.5
2019-Sep-19 17:57N 51°07' E 001°23'817.9
2019-Sep-19 17:30N 51°04' E 001°34'918.0
2019-Sep-19 17:00N 50°58' E 001°45'4 7.3
2019-Sep-19 16:30N 50°58' E 001°51'0 0.0
2019-Sep-19 16:00N 50°58' E 001°51'4 8.1
2019-Sep-19 15:30N 50°58' E 001°45'918.0
2019-Sep-19 15:00N 51°02' E 001°32'9 5.5
2019-Sep-19 13:22N 51°07' E 001°20'411.2
2019-Sep-19 13:01N 51°06' E 001°26'1020.2
2019-Sep-19 12:30N 51°01' E 001°40'714.8
2019-Sep-19 12:01N 50°58' E 001°51'0 0.0
2019-Sep-19 11:30N 50°58' E 001°51'0 0.4
2019-Sep-19 11:01N 50°58' E 001°51'917.2
2019-Sep-19 10:30N 50°59' E 001°37'1021.0
2019-Sep-19 10:01N 51°06' E 001°24'3 2.3
2019-Sep-19 08:45N 51°07' E 001°20'310.5
2019-Sep-19 08:30N 51°07' E 001°24'917.2
2019-Sep-19 08:00N 51°03' E 001°36'816.4
2019-Sep-19 07:30N 50°58' E 001°47'2 4.8
2019-Sep-19 07:00N 50°58' E 001°51'0 0.0
2019-Sep-19 06:30N 50°58' E 001°51'3 6.1
2019-Sep-19 06:01N 50°58' E 001°46'816.5
2019-Sep-19 05:30N 51°01' E 001°34'816.2
2019-Sep-19 05:01N 51°06' E 001°24'3 2.3
2019-Sep-19 03:53N 51°07' E 001°20'512.8
2019-Sep-19 03:30N 51°07' E 001°28'714.8
2019-Sep-19 03:00N 51°02' E 001°37'714.5
2019-Sep-19 02:30N 50°58' E 001°47'3 5.0
2019-Sep-19 02:00N 50°58' E 001°51'0 0.0
2019-Sep-19 01:30N 50°58' E 001°51'3 5.7
2019-Sep-19 01:00N 50°58' E 001°47'816.1
2019-Sep-19 00:30N 51°01' E 001°34'815.7
2019-Sep-19 00:00N 51°05' E 001°24'3 3.2
2019-Sep-18 22:59N 51°07' E 001°20'612.8
2019-Sep-18 22:30N 51°05' E 001°29'1019.1
2019-Sep-18 22:01N 50°59' E 001°42'612.2
2019-Sep-18 21:30N 50°58' E 001°51'0 0.0
2019-Sep-18 21:00N 50°58' E 001°51'4 8.8
2019-Sep-18 20:31N 50°58' E 001°44'816.7
2019-Sep-18 20:00N 50°59' E 001°31'1019.1
2019-Sep-18 19:29N 51°07' E 001°21'1 0.7
2019-Sep-18 18:22N 51°07' E 001°20'411.1
2019-Sep-18 18:00N 51°06' E 001°26'918.3
2019-Sep-18 17:30N 51°01' E 001°38'816.5
2019-Sep-18 17:01N 50°58' E 001°51'0 0.6
2019-Sep-18 16:30N 50°58' E 001°51'0 0.0
2019-Sep-18 16:01N 50°58' E 001°51'510.2
2019-Sep-18 15:30N 50°58' E 001°43'816.7
2019-Sep-18 15:00N 51°02' E 001°31'917.2
2019-Sep-18 14:30N 51°07' E 001°20'0 0.1
2019-Sep-18 13:31N 51°07' E 001°20'0 5.2
2019-Sep-18 13:28N 51°07' E 001°20'5 9.8
2019-Sep-18 13:01N 51°06' E 001°27'918.9
2019-Sep-18 12:30N 51°00' E 001°40'714.5
2019-Sep-18 12:01N 50°58' E 001°51'0 0.3
2019-Sep-18 11:30N 50°58' E 001°51'0 0.9
2019-Sep-18 11:01N 50°58' E 001°50'816.8
2019-Sep-18 10:30N 50°59' E 001°37'918.9
2019-Sep-18 10:00N 51°05' E 001°25'4 3.2
2019-Sep-18 08:47N 51°07' E 001°20'312.1
2019-Sep-18 08:31N 51°07' E 001°25'918.1
2019-Sep-18 08:01N 51°02' E 001°38'815.8
2019-Sep-18 07:30N 50°58' E 001°49'1 2.5
2019-Sep-18 07:00N 50°58' E 001°51'0 0.0
2019-Sep-18 06:30N 50°58' E 001°51'3 6.1
2019-Sep-18 06:00N 50°58' E 001°46'815.6
2019-Sep-18 05:30N 51°01' E 001°35'816.5
2019-Sep-18 05:01N 51°06' E 001°24'3 2.3
2019-Sep-18 03:48N 51°07' E 001°21'414.4
2019-Sep-18 03:31N 51°06' E 001°27'714.7
2019-Sep-18 03:01N 51°02' E 001°37'714.2
2019-Sep-18 02:31N 50°58' E 001°46'3 5.9
2019-Sep-18 02:00N 50°58' E 001°51'0 0.0
2019-Sep-18 01:30N 50°58' E 001°51'3 5.7
2019-Sep-18 01:01N 50°58' E 001°47'815.6
2019-Sep-18 00:31N 51°01' E 001°35'815.2
2019-Sep-18 00:00N 51°05' E 001°25'4 3.5
2019-Sep-17 22:57N 51°07' E 001°20'714.7
2019-Sep-17 22:31N 51°06' E 001°30'817.0
2019-Sep-17 22:01N 50°60' E 001°40'714.1
2019-Sep-17 21:30N 50°58' E 001°51'0 0.0
2019-Sep-17 21:00N 50°58' E 001°51'2 4.4
2019-Sep-17 20:31N 50°58' E 001°48'815.8
2019-Sep-17 20:01N 50°58' E 001°35'918.4
2019-Sep-17 19:30N 51°05' E 001°24'4 2.6
2019-Sep-17 18:08N 51°07' E 001°20'110.1
2019-Sep-17 18:00N 51°07' E 001°23'917.5
2019-Sep-17 17:30N 51°03' E 001°35'917.8
2019-Sep-17 17:00N 50°58' E 001°46'3 6.1
2019-Sep-17 16:30N 50°58' E 001°51'0 0.0
2019-Sep-17 16:00N 50°58' E 001°51'3 6.8
2019-Sep-17 15:30N 50°58' E 001°46'917.8
2019-Sep-17 15:01N 51°01' E 001°32'816.2
2019-Sep-17 14:31N 51°06' E 001°23'2 1.9
2019-Sep-17 13:28N 51°07' E 001°20'613.9
2019-Sep-17 13:01N 51°05' E 001°29'1019.0
2019-Sep-17 12:31N 50°59' E 001°42'611.5
2019-Sep-17 12:00N 50°58' E 001°51'0 0.0
2019-Sep-17 11:30N 50°58' E 001°51'2 4.1
2019-Sep-17 11:01N 50°58' E 001°48'917.8
2019-Sep-17 10:31N 50°60' E 001°34'918.1
2019-Sep-17 10:01N 51°06' E 001°23'2 1.8
2019-Sep-17 08:44N 51°07' E 001°20'312.1
2019-Sep-17 08:31N 51°07' E 001°25'917.4
2019-Sep-17 08:00N 51°02' E 001°36'816.8
2019-Sep-17 07:30N 50°58' E 001°48'2 3.8
2019-Sep-17 07:00N 50°58' E 001°51'0 0.0
2019-Sep-17 06:30N 50°58' E 001°51'4 7.6
2019-Sep-17 06:00N 50°58' E 001°45'714.8
2019-Sep-17 05:30N 50°60' E 001°34'816.6
2019-Sep-17 05:00N 51°06' E 001°24'3 2.5
2019-Sep-17 03:48N 51°07' E 001°20'412.4
2019-Sep-17 03:30N 51°06' E 001°26'815.5
2019-Sep-17 03:01N 51°02' E 001°36'714.9
2019-Sep-17 02:31N 50°58' E 001°46'3 5.8
2019-Sep-17 02:00N 50°58' E 001°51'0 0.0
2019-Sep-17 01:30N 50°58' E 001°51'3 6.6
2019-Sep-17 01:01N 50°58' E 001°46'815.7
2019-Sep-17 00:31N 51°01' E 001°34'815.2
2019-Sep-17 00:00N 51°05' E 001°25'3 2.9
2019-Sep-16 22:53N 51°07' E 001°20'411.1
2019-Sep-16 22:30N 51°06' E 001°27'714.9
2019-Sep-16 22:00N 51°01' E 001°36'815.8
2019-Sep-16 21:30N 50°58' E 001°47'2 4.8
2019-Sep-16 21:00N 50°58' E 001°51'0 0.0
2019-Sep-16 20:31N 50°58' E 001°51'612.7
2019-Sep-16 20:00N 50°58' E 001°41'816.0
2019-Sep-16 19:30N 51°02' E 001°29'8 5.0
2019-Sep-16 17:55N 51°07' E 001°20'716.7
2019-Sep-16 17:30N 51°05' E 001°30'917.6
2019-Sep-16 17:01N 50°60' E 001°42'611.8
2019-Sep-16 16:30N 50°58' E 001°51'0 0.0
2019-Sep-16 16:00N 50°58' E 001°51'4 7.1
2019-Sep-16 15:30N 50°58' E 001°45'918.1
2019-Sep-16 15:01N 51°02' E 001°32'917.9
2019-Sep-16 14:30N 51°07' E 001°21'0 0.2
2019-Sep-16 13:22N 51°07' E 001°20'615.3
2019-Sep-16 13:01N 51°05' E 001°29'918.1
2019-Sep-16 12:31N 51°01' E 001°41'713.7
2019-Sep-16 12:01N 50°58' E 001°51'0 0.0
2019-Sep-16 11:31N 50°58' E 001°51'1 1.1
2019-Sep-16 11:00N 50°58' E 001°50'815.4
2019-Sep-16 10:30N 50°60' E 001°38'816.8
2019-Sep-16 10:01N 51°04' E 001°27'5 4.1
2019-Sep-16 08:43N 51°07' E 001°20'210.2
2019-Sep-16 08:31N 51°07' E 001°24'917.5
2019-Sep-16 08:00N 51°02' E 001°35'917.1
2019-Sep-16 07:30N 50°58' E 001°47'2 4.5
2019-Sep-16 07:00N 50°58' E 001°51'0 0.0
2019-Sep-16 06:30N 50°58' E 001°51'4 7.8
2019-Sep-16 06:00N 50°58' E 001°45'816.2
2019-Sep-16 05:31N 51°01' E 001°33'917.2
2019-Sep-16 05:00N 51°06' E 001°22'2 1.4
2019-Sep-16 03:56N 51°07' E 001°20'613.1
2019-Sep-16 03:30N 51°05' E 001°29'917.1
2019-Sep-16 03:00N 51°00' E 001°40'714.5
2019-Sep-16 02:30N 50°58' E 001°51'0 0.3
2019-Sep-16 02:01N 50°58' E 001°51'0 0.0
2019-Sep-16 01:30N 50°58' E 001°51'2 3.4
2019-Sep-16 01:01N 50°58' E 001°48'815.3
2019-Sep-16 00:30N 50°60' E 001°36'816.1
2019-Sep-16 00:00N 51°05' E 001°26'5 4.0
2019-Sep-15 22:52N 51°07' E 001°20'411.0
2019-Sep-15 22:30N 51°06' E 001°26'815.6
2019-Sep-15 22:00N 51°02' E 001°37'816.0
2019-Sep-15 21:30N 50°58' E 001°48'2 3.9
2019-Sep-15 21:00N 50°58' E 001°51'0 0.0
2019-Sep-15 20:30N 50°58' E 001°51'5 9.8
2019-Sep-15 20:01N 50°58' E 001°43'714.1
2019-Sep-15 19:30N 51°01' E 001°33'815.6
2019-Sep-15 19:00N 51°06' E 001°24'3 5.1
2019-Sep-15 18:29N 51°08' E 001°20'0 0.4
2019-Sep-15 18:00N 51°07' E 001°20'713.5
2019-Sep-15 17:31N 51°05' E 001°30'917.2
2019-Sep-15 17:01N 50°60' E 001°41'612.5
2019-Sep-15 16:30N 50°58' E 001°51'0 0.0
2019-Sep-15 16:00N 50°58' E 001°51'2 4.3
2019-Sep-15 15:30N 50°58' E 001°48'815.7
2019-Sep-15 15:01N 50°59' E 001°35'714.9
2019-Sep-15 14:31N 51°04' E 001°27'510.6
2019-Sep-15 14:00N 51°08' E 001°20'0 0.0
2019-Sep-15 13:30N 51°08' E 001°20'1 2.8
2019-Sep-15 13:01N 51°07' E 001°22'918.0
2019-Sep-15 12:30N 51°02' E 001°35'1019.4
2019-Sep-15 12:00N 50°58' E 001°49'1 2.8
2019-Sep-15 11:30N 50°58' E 001°51'0 0.0
2019-Sep-15 11:00N 50°58' E 001°51'0 0.2
2019-Sep-15 10:30N 50°58' E 001°51'0 0.0
2019-Sep-15 10:00N 50°58' E 001°51'0 0.0
2019-Sep-15 09:30N 50°58' E 001°51'0 0.0
2019-Sep-15 09:00N 50°58' E 001°51'0 0.0
2019-Sep-15 08:30N 50°58' E 001°51'0 0.0
2019-Sep-15 08:00N 50°58' E 001°51'0 0.0
2019-Sep-15 07:30N 50°58' E 001°51'0 0.0
2019-Sep-15 06:57N 50°58' E 001°51'0 0.0
2019-Sep-15 06:30N 50°58' E 001°51'0 0.0
2019-Sep-15 05:57N 50°58' E 001°51'0 0.0
2019-Sep-15 05:27N 50°58' E 001°51'0 0.0
2019-Sep-15 05:00N 50°58' E 001°51'0 0.0
2019-Sep-15 04:30N 50°58' E 001°51'0 0.0
2019-Sep-15 03:57N 50°58' E 001°51'0 0.0
2019-Sep-15 03:30N 50°58' E 001°51'0 0.0
2019-Sep-15 03:00N 50°58' E 001°51'0 0.0
2019-Sep-15 02:30N 50°58' E 001°51'0 0.0
2019-Sep-15 02:00N 50°58' E 001°51'0 0.0
2019-Sep-15 01:30N 50°58' E 001°51'1 1.2
2019-Sep-15 01:01N 50°58' E 001°50'917.7
2019-Sep-15 00:30N 51°00' E 001°37'918.1
2019-Sep-15 00:00N 51°05' E 001°25'3 6.9
2019-Sep-14 23:30N 51°08' E 001°20'0 0.0
2019-Sep-14 23:00N 51°08' E 001°20'4 8.3
2019-Sep-14 22:30N 51°07' E 001°27'816.2
2019-Sep-14 22:00N 51°01' E 001°36'815.7
2019-Sep-14 21:30N 50°58' E 001°48'2 4.0
2019-Sep-14 21:00N 50°58' E 001°51'0 0.0
2019-Sep-14 20:30N 50°58' E 001°51'510.7
2019-Sep-14 20:01N 50°58' E 001°43'714.3
2019-Sep-14 19:31N 51°01' E 001°32'815.4
2019-Sep-14 19:00N 51°06' E 001°23'2 4.3
2019-Sep-14 18:28N 51°08' E 001°20'0 0.3
2019-Sep-14 18:00N 51°07' E 001°21'815.7
2019-Sep-14 17:30N 51°04' E 001°32'816.1
2019-Sep-14 17:00N 50°59' E 001°42'611.4
2019-Sep-14 16:30N 50°58' E 001°51'0 0.0
2019-Sep-14 16:00N 50°58' E 001°51'2 3.1
2019-Sep-14 15:31N 50°58' E 001°49'815.3
2019-Sep-14 15:00N 50°60' E 001°37'816.0
2019-Sep-14 14:31N 51°04' E 001°26'5 6.2
2019-Sep-14 13:44N 51°08' E 001°20'0 0.1
2019-Sep-14 13:19N 51°07' E 001°20'310.4
2019-Sep-14 13:00N 51°06' E 001°25'917.3
2019-Sep-14 12:30N 51°02' E 001°37'816.3
2019-Sep-14 12:00N 50°58' E 001°48'2 3.2
2019-Sep-14 11:30N 50°58' E 001°51'0 0.0
2019-Sep-14 11:00N 50°58' E 001°51'816.7
2019-Sep-14 10:30N 50°60' E 001°38'1019.4
2019-Sep-14 10:00N 51°05' E 001°25'4 3.1
2019-Sep-14 08:45N 51°07' E 001°20'310.6
2019-Sep-14 08:30N 51°07' E 001°24'917.3
2019-Sep-14 08:00N 51°02' E 001°35'917.1
2019-Sep-14 07:30N 50°58' E 001°48'2 4.1
2019-Sep-14 07:00N 50°58' E 001°51'0 0.0
2019-Sep-14 06:30N 50°58' E 001°51'4 7.4
2019-Sep-14 06:00N 50°58' E 001°45'815.5
2019-Sep-14 05:30N 51°00' E 001°34'816.7
2019-Sep-14 05:01N 51°06' E 001°23'3 2.2
2019-Sep-14 03:49N 51°07' E 001°20'413.6
2019-Sep-14 03:31N 51°06' E 001°26'815.3
2019-Sep-14 03:00N 51°02' E 001°37'714.8
2019-Sep-14 02:30N 50°58' E 001°47'3 5.4
2019-Sep-14 02:00N 50°58' E 001°51'0 0.0
2019-Sep-14 01:30N 50°58' E 001°51'4 8.3
2019-Sep-14 01:00N 50°58' E 001°44'815.8
2019-Sep-14 00:30N 51°01' E 001°33'815.5
2019-Sep-14 00:00N 51°06' E 001°23'3 4.8
2019-Sep-13 23:29N 51°08' E 001°20'0 0.1
2019-Sep-13 22:54N 51°07' E 001°20'410.4
2019-Sep-13 22:30N 51°06' E 001°27'816.5
2019-Sep-13 22:01N 51°02' E 001°37'815.3
2019-Sep-13 21:30N 50°58' E 001°49'2 3.2
2019-Sep-13 21:00N 50°58' E 001°51'0 0.4
2019-Sep-13 20:30N 50°58' E 001°51'713.5
2019-Sep-13 20:00N 50°58' E 001°40'713.4
2019-Sep-13 19:30N 51°01' E 001°31'816.0
2019-Sep-13 19:00N 51°07' E 001°21'1 0.9
2019-Sep-13 17:55N 51°07' E 001°20'717.5
2019-Sep-13 17:31N 51°05' E 001°31'816.7
2019-Sep-13 17:00N 50°60' E 001°42'612.3
2019-Sep-13 16:30N 50°58' E 001°51'0 0.0
2019-Sep-13 16:00N 50°58' E 001°51'1 2.9
2019-Sep-13 15:30N 50°58' E 001°49'816.1
2019-Sep-13 15:01N 50°60' E 001°36'917.2
2019-Sep-13 14:30N 51°05' E 001°25'4 3.0
2019-Sep-13 13:15N 51°07' E 001°21'417.3
2019-Sep-13 13:00N 51°06' E 001°27'1019.3
2019-Sep-13 12:30N 51°01' E 001°40'714.9
2019-Sep-13 12:01N 50°58' E 001°51'0 0.1
2019-Sep-13 11:30N 50°58' E 001°51'1 2.6
2019-Sep-13 11:00N 50°58' E 001°49'714.6
2019-Sep-13 10:30N 50°60' E 001°38'917.9
2019-Sep-13 10:00N 51°05' E 001°26'4 3.5
2019-Sep-13 08:46N 51°07' E 001°20'311.9
2019-Sep-13 08:31N 51°07' E 001°25'918.6
2019-Sep-13 08:00N 51°01' E 001°37'917.5
2019-Sep-13 07:31N 50°58' E 001°50'1 1.4
2019-Sep-13 07:00N 50°58' E 001°51'0 0.0
2019-Sep-13 06:30N 50°58' E 001°51'4 7.4
2019-Sep-13 06:00N 50°58' E 001°45'714.7
2019-Sep-13 05:30N 51°00' E 001°34'815.3
2019-Sep-13 05:00N 51°05' E 001°25'4 3.0
2019-Sep-13 03:49N 51°07' E 001°20'412.3
2019-Sep-13 03:30N 51°06' E 001°26'714.8
2019-Sep-13 03:00N 51°03' E 001°37'714.9
2019-Sep-13 02:30N 50°58' E 001°45'3 3.5
2019-Sep-13 01:30N 50°58' E 001°51'2 3.3
2019-Sep-13 01:00N 50°58' E 001°48'815.7
2019-Sep-13 00:30N 51°00' E 001°36'815.8
2019-Sep-13 00:00N 51°05' E 001°26'4 4.2
2019-Sep-12 22:57N 51°07' E 001°20'613.4
2019-Sep-12 22:31N 51°07' E 001°30'815.6
2019-Sep-12 22:00N 51°01' E 001°39'714.0
2019-Sep-12 21:30N 50°58' E 001°49'2 3.1
2019-Sep-12 21:00N 50°58' E 001°51'1 3.0
2019-Sep-12 20:30N 50°58' E 001°49'918.1
2019-Sep-12 20:00N 51°01' E 001°35'918.7
2019-Sep-12 19:31N 51°06' E 001°23'1 0.8
2019-Sep-12 18:11N 51°07' E 001°22'317.5
2019-Sep-12 18:00N 51°06' E 001°27'918.0
2019-Sep-12 17:30N 51°01' E 001°39'816.3
2019-Sep-12 17:00N 50°58' E 001°51'0 0.6
2019-Sep-12 16:30N 50°58' E 001°51'0 0.0
2019-Sep-12 16:00N 50°58' E 001°51'612.4
2019-Sep-12 15:30N 50°58' E 001°41'917.9
2019-Sep-12 15:00N 51°03' E 001°29'7 3.9
2019-Sep-12 13:16N 51°07' E 001°20'415.4
2019-Sep-12 13:00N 51°06' E 001°27'917.7
2019-Sep-12 12:31N 51°01' E 001°38'816.9
2019-Sep-12 12:00N 50°58' E 001°51'0 0.4
2019-Sep-12 11:30N 50°58' E 001°51'0 0.0
2019-Sep-12 11:00N 50°58' E 001°51'816.3
2019-Sep-12 10:30N 50°59' E 001°38'918.7
2019-Sep-12 10:00N 51°04' E 001°26'5 3.7
2019-Sep-12 08:42N 51°07' E 001°20'2 9.1
2019-Sep-12 08:31N 51°07' E 001°23'1019.7
2019-Sep-12 08:01N 51°02' E 001°36'918.7
2019-Sep-12 07:31N 50°58' E 001°50'1 1.6
2019-Sep-12 07:00N 50°58' E 001°51'0 0.0
2019-Sep-12 06:30N 50°58' E 001°51'3 6.4
2019-Sep-12 06:01N 50°58' E 001°46'714.9
2019-Sep-12 05:30N 51°01' E 001°35'816.5
2019-Sep-12 05:00N 51°05' E 001°24'3 2.6
2019-Sep-12 03:48N 51°07' E 001°20'412.4
2019-Sep-12 03:30N 51°06' E 001°26'815.1
2019-Sep-12 03:00N 51°03' E 001°36'815.3
2019-Sep-12 02:31N 50°58' E 001°46'3 6.4
2019-Sep-12 02:01N 50°58' E 001°51'0 0.0
2019-Sep-12 01:31N 50°58' E 001°51'2 3.5
2019-Sep-12 01:00N 50°58' E 001°48'815.1
2019-Sep-12 00:31N 50°60' E 001°37'815.7
2019-Sep-12 00:01N 51°04' E 001°26'5 4.7
2019-Sep-11 22:56N 51°07' E 001°20'613.0
2019-Sep-11 22:31N 51°07' E 001°29'816.7
2019-Sep-11 22:01N 51°02' E 001°39'714.7
2019-Sep-11 21:30N 50°58' E 001°50'1 1.7
2019-Sep-11 21:00N 50°58' E 001°51'1 2.2
2019-Sep-11 20:31N 50°58' E 001°49'1020.5
2019-Sep-11 20:01N 51°01' E 001°34'10 6.4
2019-Sep-11 18:24N 51°07' E 001°20'512.5
2019-Sep-11 18:00N 51°06' E 001°28'917.3
2019-Sep-11 17:31N 51°01' E 001°39'815.7
2019-Sep-11 17:00N 50°58' E 001°51'0 0.6
2019-Sep-11 16:31N 50°58' E 001°51'0 0.0
2019-Sep-11 16:01N 50°58' E 001°51'611.4
2019-Sep-11 15:30N 50°58' E 001°42'1020.1
2019-Sep-11 15:00N 51°04' E 001°29'6 4.4
2019-Sep-11 13:34N 51°07' E 001°20'0 0.7
2019-Sep-11 13:19N 51°07' E 001°20'517.1
2019-Sep-11 13:01N 51°07' E 001°29'917.1
2019-Sep-11 12:30N 51°01' E 001°39'816.0
2019-Sep-11 12:01N 50°58' E 001°51'0 0.3
2019-Sep-11 11:30N 50°58' E 001°51'0 0.4
2019-Sep-11 11:01N 50°58' E 001°51'1019.7
2019-Sep-11 10:31N 50°60' E 001°35'  

Dump ship's entire track history